Classifiche di sempre
Migliori tempi personali validi di atleta tra tutti gli eventi e le stagioni. Ogni atleta compare una sola volta per divisione.
Cerca per nome e apri la pagina in cui è classificato questo record di divisione.
179,683 atleti in classifica
| Pos. | Pos. AG | Atleta | Nazionalità | Categoria età | TempoMiglior tempo | Distacco |
|---|---|---|---|---|---|---|
| 149926 | #21628 | Tom SharkeyIRL · M 40-44 · AG #21628 | IRL | M 40-44 | 1:48:17 | +57:39 |
| 149927 | #21629 | Ewan ShearerGBR · M 40-44 · AG #21629 | GBR | M 40-44 | 1:48:17 | +57:39 |
| 149928 | #11915 | Luzim HimajGER · M 45-49 · AG #11915 | GER | M 45-49 | 1:48:17 | +57:39 |
| 149929 | #33153 | Gabriel LukHKG · M 35-39 · AG #33153 | HKG | M 35-39 | 1:48:17 | +57:39 |
| 149930 | #2536 | Jan von HorstenGER · M 55-59 · AG #2536 | GER | M 55-59 | 1:48:17 | +57:39 |
| 149931 | #21624 | Chris HolmanUSA · M 40-44 · AG #21624 | USA | M 40-44 | 1:48:17 | +57:39 |
| 149932 | #21630 | Jan PickardRSA · M 40-44 · AG #21630 | RSA | M 40-44 | 1:48:17 | +57:39 |
| 149933 | #33154 | Christian TazollAUT · M 35-39 · AG #33154 | AUT | M 35-39 | 1:48:17 | +57:39 |
| 149934 | #40112 | Mitchell VernonUSA · M 30-34 · AG #40112 | USA | M 30-34 | 1:48:17 | +57:39 |
| 149935 | #15439 | 玮哲 张CHN · M 16-24 · AG #15439 | CHN | M 16-24 | 1:48:17 | +57:39 |
| 149936 | #40113 | Eugenio CaldarellaITA · M 30-34 · AG #40113 | ITA | M 30-34 | 1:48:17 | +57:39 |
| 149937 | #33155 | 攀 曹CHN · M 35-39 · AG #33155 | CHN | M 35-39 | 1:48:17 | +57:39 |
| 149938 | #21625 | Farai MusukaZIM · M 40-44 · AG #21625 | ZIM | M 40-44 | 1:48:17 | +57:39 |
| 149939 | #32248 | Prashanth SIND · M 25-29 · AG #32248 | IND | M 25-29 | 1:48:17 | +57:39 |
| 149940 | #33156 | SAMARTH SHAHIND · M 35-39 · AG #33156 | IND | M 35-39 | 1:48:17 | +57:39 |
| 149941 | #33157 | Cleon Jamal HiwatSUR · M 35-39 · AG #33157 | SUR | M 35-39 | 1:48:18 | +57:40 |
| 149942 | #15440 | Shankar RamanUSA · M 16-24 · AG #15440 | USA | M 16-24 | 1:48:18 | +57:40 |
| 149943 | #952 | Ian CrossGBR · M 60-64 · AG #952 | GBR | M 60-64 | 1:48:18 | +57:40 |
| 149944 | #33158 | Matt ShieldGBR · M 35-39 · AG #33158 | GBR | M 35-39 | 1:48:18 | +57:40 |
| 149945 | #33162 | 萌 边CHN · M 35-39 · AG #33162 | CHN | M 35-39 | 1:48:18 | +57:40 |
| 149946 | #15441 | Danniv ArnonGER · M 16-24 · AG #15441 | GER | M 16-24 | 1:48:18 | +57:40 |
| 149947 | #40115 | Jason BosherGBR · M 30-34 · AG #40115 | GBR | M 30-34 | 1:48:18 | +57:40 |
| 149948 | #21631 | Michael PagnielloCAN · M 40-44 · AG #21631 | CAN | M 40-44 | 1:48:18 | +57:40 |
| 149949 | #21632 | Freek LodewegesNED · M 40-44 · AG #21632 | NED | M 40-44 | 1:48:18 | +57:40 |
| 149950 | #11916 | Wagner OliveiraBRA · M 45-49 · AG #11916 | BRA | M 45-49 | 1:48:18 | +57:40 |
Pagina 5,998 di 7,188